sensor_id;sensor_type;location;lat;lon;timestamp;temperature;humidity
21625;DHT22;10974;51.034;3.744;2022-09-25T00:00:55;18.10;99.90
21625;DHT22;10974;51.034;3.744;2022-09-25T00:03:23;18.10;1.00
21625;DHT22;10974;51.034;3.744;2022-09-25T00:05:50;18.10;1.00
21625;DHT22;10974;51.034;3.744;2022-09-25T00:08:17;18.20;99.90
21625;DHT22;10974;51.034;3.744;2022-09-25T00:10:46;18.20;1.00
21625;DHT22;10974;51.034;3.744;2022-09-25T00:13:13;18.20;99.90
21625;DHT22;10974;51.034;3.744;2022-09-25T00:15:45;18.20;99.90
21625;DHT22;10974;51.034;3.744;2022-09-25T00:18:11;18.20;99.90
21625;DHT22;10974;51.034;3.744;2022-09-25T00:20:37;18.10;99.90
21625;DHT22;10974;51.034;3.744;2022-09-25T00:23:03;18.00;99.90
21625;DHT22;10974;51.034;3.744;2022-09-25T00:25:29;18.00;99.90
21625;DHT22;10974;51.034;3.744;2022-09-25T00:27:55;18.10;99.90
21625;DHT22;10974;51.034;3.744;2022-09-25T00:30:20;18.20;99.90
21625;DHT22;10974;51.034;3.744;2022-09-25T00:32:46;18.10;1.00
21625;DHT22;10974;51.034;3.744;2022-09-25T00:35:12;18.00;88.90
21625;DHT22;10974;51.034;3.744;2022-09-25T00:37:37;18.00;45.80
21625;DHT22;10974;51.034;3.744;2022-09-25T00:40:04;18.00;1.00
21625;DHT22;10974;51.034;3.744;2022-09-25T00:42:31;18.00;1.00
21625;DHT22;10974;51.034;3.744;2022-09-25T00:44:58;18.00;1.00
21625;DHT22;10974;51.034;3.744;2022-09-25T00:47:47;18.00;1.00
21625;DHT22;10974;51.034;3.744;2022-09-25T00:50:35;18.00;99.90
21625;DHT22;10974;51.034;3.744;2022-09-25T00:53:09;18.00;99.90
21625;DHT22;10974;51.034;3.744;2022-09-25T00:55:37;18.00;99.90
21625;DHT22;10974;51.034;3.744;2022-09-25T00:58:05;18.10;99.90
21625;DHT22;10974;51.034;3.744;2022-09-25T01:00:32;14.50;1.00
21625;DHT22;10974;51.034;3.744;2022-09-25T01:02:57;12.90;99.90
21625;DHT22;10974;51.034;3.744;2022-09-25T01:05:34;12.40;99.90
21625;DHT22;10974;51.034;3.744;2022-09-25T01:08:02;12.20;99.90
21625;DHT22;10974;51.034;3.744;2022-09-25T01:10:28;12.10;99.90
21625;DHT22;10974;51.034;3.744;2022-09-25T01:12:55;12.10;99.90
21625;DHT22;10974;51.034;3.744;2022-09-25T01:15:58;12.00;99.90
21625;DHT22;10974;51.034;3.744;2022-09-25T01:21:32;12.00;99.90
21625;DHT22;10974;51.034;3.744;2022-09-25T01:27:10;11.90;99.90
21625;DHT22;10974;51.034;3.744;2022-09-25T01:32:43;11.80;99.90
21625;DHT22;10974;51.034;3.744;2022-09-25T01:38:22;12.00;99.90
21625;DHT22;10974;51.034;3.744;2022-09-25T01:40:55;11.90;99.90
21625;DHT22;10974;51.034;3.744;2022-09-25T01:43:31;11.90;99.90
21625;DHT22;10974;51.034;3.744;2022-09-25T01:46:19;11.90;99.90
21625;DHT22;10974;51.034;3.744;2022-09-25T01:48:50;11.90;99.90
21625;DHT22;10974;51.034;3.744;2022-09-25T01:51:28;11.90;99.90
21625;DHT22;10974;51.034;3.744;2022-09-25T01:53:59;11.70;99.90
21625;DHT22;10974;51.034;3.744;2022-09-25T01:56:34;11.80;99.90
21625;DHT22;10974;51.034;3.744;2022-09-25T01:59:32;11.70;99.90
21625;DHT22;10974;51.034;3.744;2022-09-25T02:02:02;11.70;99.90
21625;DHT22;10974;51.034;3.744;2022-09-25T02:04:43;11.70;99.90
21625;DHT22;10974;51.034;3.744;2022-09-25T02:07:16;11.80;99.90
21625;DHT22;10974;51.034;3.744;2022-09-25T02:09:50;11.70;99.90
21625;DHT22;10974;51.034;3.744;2022-09-25T02:12:21;11.50;99.90
21625;DHT22;10974;51.034;3.744;2022-09-25T02:14:54;11.60;99.90
21625;DHT22;10974;51.034;3.744;2022-09-25T02:17:31;11.50;99.90
21625;DHT22;10974;51.034;3.744;2022-09-25T02:20:17;11.50;99.90
21625;DHT22;10974;51.034;3.744;2022-09-25T02:23:17;11.50;99.90
21625;DHT22;10974;51.034;3.744;2022-09-25T02:25:50;11.50;99.90
21625;DHT22;10974;51.034;3.744;2022-09-25T02:28:21;11.50;99.90
21625;DHT22;10974;51.034;3.744;2022-09-25T02:30:48;11.50;99.90
21625;DHT22;10974;51.034;3.744;2022-09-25T02:33:14;11.50;99.90
21625;DHT22;10974;51.034;3.744;2022-09-25T02:35:40;11.30;99.90
21625;DHT22;10974;51.034;3.744;2022-09-25T02:38:07;11.40;99.90
21625;DHT22;10974;51.034;3.744;2022-09-25T02:40:58;11.40;99.90
21625;DHT22;10974;51.034;3.744;2022-09-25T02:43:45;11.40;99.90
21625;DHT22;10974;51.034;3.744;2022-09-25T02:52:05;11.30;99.90
21625;DHT22;10974;51.034;3.744;2022-09-25T02:57:40;11.30;99.90
21625;DHT22;10974;51.034;3.744;2022-09-25T03:00:09;11.30;99.90
21625;DHT22;10974;51.034;3.744;2022-09-25T03:02:36;11.30;99.90
21625;DHT22;10974;51.034;3.744;2022-09-25T03:05:05;11.30;99.90
21625;DHT22;10974;51.034;3.744;2022-09-25T03:07:31;11.30;99.90
21625;DHT22;10974;51.034;3.744;2022-09-25T03:10:18;11.20;99.90
21625;DHT22;10974;51.034;3.744;2022-09-25T03:12:43;11.20;99.90
21625;DHT22;10974;51.034;3.744;2022-09-25T03:15:10;11.10;99.90
21625;DHT22;10974;51.034;3.744;2022-09-25T03:17:36;11.10;99.90
21625;DHT22;10974;51.034;3.744;2022-09-25T03:20:05;11.00;99.90
21625;DHT22;10974;51.034;3.744;2022-09-25T03:22:31;11.10;99.90
21625;DHT22;10974;51.034;3.744;2022-09-25T03:24:57;11.10;99.90
21625;DHT22;10974;51.034;3.744;2022-09-25T03:27:22;11.00;99.90
21625;DHT22;10974;51.034;3.744;2022-09-25T03:29:52;11.00;99.90
21625;DHT22;10974;51.034;3.744;2022-09-25T03:32:20;11.00;99.90
21625;DHT22;10974;51.034;3.744;2022-09-25T03:34:45;10.90;99.90
21625;DHT22;10974;51.034;3.744;2022-09-25T03:37:11;10.90;99.90
21625;DHT22;10974;51.034;3.744;2022-09-25T03:39:37;10.90;99.90
21625;DHT22;10974;51.034;3.744;2022-09-25T03:42:02;10.80;99.90
21625;DHT22;10974;51.034;3.744;2022-09-25T03:44:29;10.70;99.90
21625;DHT22;10974;51.034;3.744;2022-09-25T03:46:54;10.80;99.90
21625;DHT22;10974;51.034;3.744;2022-09-25T03:49:20;10.70;99.90
21625;DHT22;10974;51.034;3.744;2022-09-25T03:51:47;10.70;99.90
21625;DHT22;10974;51.034;3.744;2022-09-25T03:54:13;10.70;99.90
21625;DHT22;10974;51.034;3.744;2022-09-25T03:56:39;10.70;99.90
21625;DHT22;10974;51.034;3.744;2022-09-25T03:59:04;10.60;99.90
21625;DHT22;10974;51.034;3.744;2022-09-25T04:01:30;10.60;99.90
21625;DHT22;10974;51.034;3.744;2022-09-25T04:03:56;10.60;99.90
21625;DHT22;10974;51.034;3.744;2022-09-25T04:06:24;10.50;99.90
21625;DHT22;10974;51.034;3.744;2022-09-25T04:08:51;10.60;99.90
21625;DHT22;10974;51.034;3.744;2022-09-25T04:11:18;10.70;99.90
21625;DHT22;10974;51.034;3.744;2022-09-25T04:13:45;10.60;99.90
21625;DHT22;10974;51.034;3.744;2022-09-25T04:16:12;10.60;99.90
21625;DHT22;10974;51.034;3.744;2022-09-25T04:18:38;10.60;99.90
21625;DHT22;10974;51.034;3.744;2022-09-25T04:21:07;10.70;99.90
21625;DHT22;10974;51.034;3.744;2022-09-25T04:23:34;10.60;99.90
21625;DHT22;10974;51.034;3.744;2022-09-25T04:26:00;10.60;99.90
21625;DHT22;10974;51.034;3.744;2022-09-25T04:28:26;10.60;99.90
21625;DHT22;10974;51.034;3.744;2022-09-25T04:30:51;10.60;99.90
21625;DHT22;10974;51.034;3.744;2022-09-25T04:33:18;10.60;99.90
21625;DHT22;10974;51.034;3.744;2022-09-25T04:36:02;10.90;99.90
21625;DHT22;10974;51.034;3.744;2022-09-25T04:38:28;11.00;99.90
21625;DHT22;10974;51.034;3.744;2022-09-25T04:40:58;11.00;99.90
21625;DHT22;10974;51.034;3.744;2022-09-25T04:43:27;11.10;99.90
21625;DHT22;10974;51.034;3.744;2022-09-25T04:45:53;11.10;99.90
21625;DHT22;10974;51.034;3.744;2022-09-25T04:48:19;11.10;99.90
21625;DHT22;10974;51.034;3.744;2022-09-25T04:50:48;11.20;99.90
21625;DHT22;10974;51.034;3.744;2022-09-25T04:53:15;11.20;99.90
21625;DHT22;10974;51.034;3.744;2022-09-25T04:55:41;11.20;99.90
21625;DHT22;10974;51.034;3.744;2022-09-25T04:58:08;11.20;99.90
21625;DHT22;10974;51.034;3.744;2022-09-25T05:00:34;11.20;99.90
21625;DHT22;10974;51.034;3.744;2022-09-25T05:03:02;11.30;99.90
21625;DHT22;10974;51.034;3.744;2022-09-25T05:05:28;11.30;99.90
21625;DHT22;10974;51.034;3.744;2022-09-25T05:07:59;11.40;99.90
21625;DHT22;10974;51.034;3.744;2022-09-25T05:10:31;11.40;99.90
21625;DHT22;10974;51.034;3.744;2022-09-25T05:12:59;11.60;99.90
21625;DHT22;10974;51.034;3.744;2022-09-25T05:15:26;11.50;99.90
21625;DHT22;10974;51.034;3.744;2022-09-25T05:20:42;11.40;99.90
21625;DHT22;10974;51.034;3.744;2022-09-25T05:23:09;11.40;99.90
21625;DHT22;10974;51.034;3.744;2022-09-25T05:25:35;11.40;99.90
21625;DHT22;10974;51.034;3.744;2022-09-25T05:28:02;11.30;99.90
21625;DHT22;10974;51.034;3.744;2022-09-25T05:30:30;11.30;99.90
21625;DHT22;10974;51.034;3.744;2022-09-25T05:32:57;11.30;99.90
21625;DHT22;10974;51.034;3.744;2022-09-25T05:35:23;11.30;99.90
21625;DHT22;10974;51.034;3.744;2022-09-25T05:37:50;11.20;99.90
21625;DHT22;10974;51.034;3.744;2022-09-25T05:40:16;11.20;99.90
21625;DHT22;10974;51.034;3.744;2022-09-25T05:42:43;11.10;99.90
21625;DHT22;10974;51.034;3.744;2022-09-25T05:45:12;11.00;99.90
21625;DHT22;10974;51.034;3.744;2022-09-25T05:47:39;11.00;99.90
21625;DHT22;10974;51.034;3.744;2022-09-25T05:50:06;11.00;99.90
21625;DHT22;10974;51.034;3.744;2022-09-25T05:52:34;11.00;99.90
21625;DHT22;10974;51.034;3.744;2022-09-25T05:54:59;11.00;99.90
21625;DHT22;10974;51.034;3.744;2022-09-25T05:57:30;10.90;99.90
21625;DHT22;10974;51.034;3.744;2022-09-25T05:59:55;11.40;99.90
21625;DHT22;10974;51.034;3.744;2022-09-25T06:02:21;12.80;99.90
21625;DHT22;10974;51.034;3.744;2022-09-25T06:04:47;14.00;99.90
21625;DHT22;10974;51.034;3.744;2022-09-25T06:07:12;14.90;99.90
21625;DHT22;10974;51.034;3.744;2022-09-25T06:09:38;15.40;99.90
21625;DHT22;10974;51.034;3.744;2022-09-25T06:12:04;15.90;99.90
21625;DHT22;10974;51.034;3.744;2022-09-25T06:14:30;16.40;99.90
21625;DHT22;10974;51.034;3.744;2022-09-25T06:16:57;16.60;99.90
21625;DHT22;10974;51.034;3.744;2022-09-25T06:19:23;16.90;99.90
21625;DHT22;10974;51.034;3.744;2022-09-25T06:21:49;17.10;99.90
21625;DHT22;10974;51.034;3.744;2022-09-25T06:24:15;17.20;99.90
21625;DHT22;10974;51.034;3.744;2022-09-25T06:26:40;17.30;99.90
21625;DHT22;10974;51.034;3.744;2022-09-25T06:29:06;17.50;99.90
21625;DHT22;10974;51.034;3.744;2022-09-25T06:31:33;17.50;99.90
21625;DHT22;10974;51.034;3.744;2022-09-25T06:33:59;17.60;99.90
21625;DHT22;10974;51.034;3.744;2022-09-25T06:36:25;17.60;99.90
21625;DHT22;10974;51.034;3.744;2022-09-25T06:38:54;17.80;99.90
21625;DHT22;10974;51.034;3.744;2022-09-25T06:41:21;17.10;99.90
21625;DHT22;10974;51.034;3.744;2022-09-25T06:43:51;15.80;99.90
21625;DHT22;10974;51.034;3.744;2022-09-25T06:46:17;15.20;99.90
21625;DHT22;10974;51.034;3.744;2022-09-25T06:48:52;14.90;99.90
21625;DHT22;10974;51.034;3.744;2022-09-25T06:51:23;14.70;99.90
21625;DHT22;10974;51.034;3.744;2022-09-25T06:53:52;14.60;99.90
21625;DHT22;10974;51.034;3.744;2022-09-25T06:56:18;14.50;99.90
21625;DHT22;10974;51.034;3.744;2022-09-25T06:58:44;14.50;99.90
21625;DHT22;10974;51.034;3.744;2022-09-25T07:01:10;14.50;99.90
21625;DHT22;10974;51.034;3.744;2022-09-25T07:03:36;14.50;99.90
21625;DHT22;10974;51.034;3.744;2022-09-25T07:06:17;14.40;99.90
21625;DHT22;10974;51.034;3.744;2022-09-25T07:08:44;14.50;99.90
21625;DHT22;10974;51.034;3.744;2022-09-25T07:11:23;14.50;99.90
21625;DHT22;10974;51.034;3.744;2022-09-25T07:13:50;14.50;99.90
21625;DHT22;10974;51.034;3.744;2022-09-25T07:16:24;14.50;99.90
21625;DHT22;10974;51.034;3.744;2022-09-25T07:18:52;14.50;99.90
21625;DHT22;10974;51.034;3.744;2022-09-25T07:21:20;14.50;99.90
21625;DHT22;10974;51.034;3.744;2022-09-25T07:23:47;14.50;99.90
21625;DHT22;10974;51.034;3.744;2022-09-25T07:26:24;14.50;99.90
21625;DHT22;10974;51.034;3.744;2022-09-25T07:28:57;14.60;99.90
21625;DHT22;10974;51.034;3.744;2022-09-25T07:31:26;14.60;99.90
21625;DHT22;10974;51.034;3.744;2022-09-25T07:33:52;14.70;99.90
21625;DHT22;10974;51.034;3.744;2022-09-25T07:36:18;14.80;99.90
21625;DHT22;10974;51.034;3.744;2022-09-25T07:38:48;14.70;99.90
21625;DHT22;10974;51.034;3.744;2022-09-25T07:41:15;14.80;99.90
21625;DHT22;10974;51.034;3.744;2022-09-25T07:43:41;14.80;99.90
21625;DHT22;10974;51.034;3.744;2022-09-25T07:46:08;15.00;99.90
21625;DHT22;10974;51.034;3.744;2022-09-25T07:48:34;15.10;99.90
21625;DHT22;10974;51.034;3.744;2022-09-25T07:51:00;14.90;99.90
21625;DHT22;10974;51.034;3.744;2022-09-25T07:53:26;15.00;99.90
21625;DHT22;10974;51.034;3.744;2022-09-25T07:55:55;14.90;99.90
21625;DHT22;10974;51.034;3.744;2022-09-25T07:58:21;14.90;99.90
21625;DHT22;10974;51.034;3.744;2022-09-25T08:00:47;14.90;99.90
21625;DHT22;10974;51.034;3.744;2022-09-25T08:03:13;15.00;99.90
21625;DHT22;10974;51.034;3.744;2022-09-25T08:05:39;15.00;99.90
21625;DHT22;10974;51.034;3.744;2022-09-25T08:08:04;15.00;99.90
21625;DHT22;10974;51.034;3.744;2022-09-25T08:10:30;14.90;99.90
21625;DHT22;10974;51.034;3.744;2022-09-25T08:12:56;14.90;99.90
21625;DHT22;10974;51.034;3.744;2022-09-25T08:15:22;15.00;99.90
21625;DHT22;10974;51.034;3.744;2022-09-25T08:17:48;15.00;99.90
21625;DHT22;10974;51.034;3.744;2022-09-25T08:20:14;15.00;99.90
21625;DHT22;10974;51.034;3.744;2022-09-25T08:22:40;15.00;99.90
21625;DHT22;10974;51.034;3.744;2022-09-25T08:25:06;15.10;99.90
21625;DHT22;10974;51.034;3.744;2022-09-25T08:27:33;15.20;99.90
21625;DHT22;10974;51.034;3.744;2022-09-25T08:30:10;15.20;99.90
21625;DHT22;10974;51.034;3.744;2022-09-25T08:32:36;15.40;99.90
21625;DHT22;10974;51.034;3.744;2022-09-25T08:35:02;15.40;99.90
21625;DHT22;10974;51.034;3.744;2022-09-25T08:37:28;15.50;99.90
21625;DHT22;10974;51.034;3.744;2022-09-25T08:39:59;15.50;99.90
21625;DHT22;10974;51.034;3.744;2022-09-25T08:42:30;15.70;99.90
21625;DHT22;10974;51.034;3.744;2022-09-25T08:45:00;15.70;99.90
21625;DHT22;10974;51.034;3.744;2022-09-25T08:47:46;15.90;99.90
21625;DHT22;10974;51.034;3.744;2022-09-25T08:50:30;15.90;99.90
21625;DHT22;10974;51.034;3.744;2022-09-25T08:53:08;15.90;99.90
21625;DHT22;10974;51.034;3.744;2022-09-25T08:55:39;16.00;99.90
21625;DHT22;10974;51.034;3.744;2022-09-25T08:58:33;16.00;99.90
21625;DHT22;10974;51.034;3.744;2022-09-25T09:01:06;16.10;99.90
21625;DHT22;10974;51.034;3.744;2022-09-25T09:03:39;16.10;99.90
21625;DHT22;10974;51.034;3.744;2022-09-25T09:06:11;16.20;99.90
21625;DHT22;10974;51.034;3.744;2022-09-25T09:08:40;16.40;99.90
21625;DHT22;10974;51.034;3.744;2022-09-25T09:11:11;16.30;99.90
21625;DHT22;10974;51.034;3.744;2022-09-25T09:14:16;16.40;99.90
21625;DHT22;10974;51.034;3.744;2022-09-25T09:16:55;16.70;99.90
21625;DHT22;10974;51.034;3.744;2022-09-25T09:19:23;16.80;99.90
21625;DHT22;10974;51.034;3.744;2022-09-25T09:22:11;16.90;99.90
21625;DHT22;10974;51.034;3.744;2022-09-25T09:24:45;17.00;99.90
21625;DHT22;10974;51.034;3.744;2022-09-25T09:27:35;17.00;99.90
21625;DHT22;10974;51.034;3.744;2022-09-25T09:30:17;17.10;99.90
21625;DHT22;10974;51.034;3.744;2022-09-25T09:38:24;17.50;99.90
21625;DHT22;10974;51.034;3.744;2022-09-25T09:49:32;19.00;99.90
21625;DHT22;10974;51.034;3.744;2022-09-25T09:52:11;19.20;99.90
21625;DHT22;10974;51.034;3.744;2022-09-25T09:54:54;19.50;99.90
21625;DHT22;10974;51.034;3.744;2022-09-25T09:57:26;19.60;99.90
21625;DHT22;10974;51.034;3.744;2022-09-25T10:00:03;19.00;99.90
21625;DHT22;10974;51.034;3.744;2022-09-25T10:02:42;18.40;1.00
21625;DHT22;10974;51.034;3.744;2022-09-25T10:07:48;18.60;99.90
21625;DHT22;10974;51.034;3.744;2022-09-25T10:10:16;18.50;1.00
21625;DHT22;10974;51.034;3.744;2022-09-25T10:12:53;18.40;99.90
21625;DHT22;10974;51.034;3.744;2022-09-25T10:15:27;18.50;1.00
21625;DHT22;10974;51.034;3.744;2022-09-25T10:17:56;18.70;1.00
21625;DHT22;10974;51.034;3.744;2022-09-25T10:20:24;18.50;99.90
21625;DHT22;10974;51.034;3.744;2022-09-25T10:22:52;18.50;1.00
21625;DHT22;10974;51.034;3.744;2022-09-25T10:25:39;18.70;1.00
21625;DHT22;10974;51.034;3.744;2022-09-25T10:28:31;18.80;1.00
21625;DHT22;10974;51.034;3.744;2022-09-25T10:30:57;18.70;1.00
21625;DHT22;10974;51.034;3.744;2022-09-25T10:33:25;18.60;1.00
21625;DHT22;10974;51.034;3.744;2022-09-25T10:35:52;18.80;1.00
21625;DHT22;10974;51.034;3.744;2022-09-25T10:38:38;18.50;99.90
21625;DHT22;10974;51.034;3.744;2022-09-25T10:41:12;18.40;1.00
21625;DHT22;10974;51.034;3.744;2022-09-25T10:43:56;18.20;99.90
21625;DHT22;10974;51.034;3.744;2022-09-25T10:46:35;18.00;1.00
21625;DHT22;10974;51.034;3.744;2022-09-25T10:49:22;18.20;99.90
21625;DHT22;10974;51.034;3.744;2022-09-25T10:52:09;17.50;99.90
21625;DHT22;10974;51.034;3.744;2022-09-25T10:54:35;17.20;27.10
21625;DHT22;10974;51.034;3.744;2022-09-25T10:57:34;17.20;1.00
21625;DHT22;10974;51.034;3.744;2022-09-25T11:00:00;17.90;1.00
21625;DHT22;10974;51.034;3.744;2022-09-25T11:02:47;18.30;1.00
21625;DHT22;10974;51.034;3.744;2022-09-25T11:05:21;18.80;99.90
21625;DHT22;10974;51.034;3.744;2022-09-25T11:07:51;18.90;99.90
21625;DHT22;10974;51.034;3.744;2022-09-25T11:10:20;19.10;99.90
21625;DHT22;10974;51.034;3.744;2022-09-25T11:12:47;19.00;99.90
21625;DHT22;10974;51.034;3.744;2022-09-25T11:15:18;19.00;1.00
21625;DHT22;10974;51.034;3.744;2022-09-25T11:17:47;19.60;99.90
21625;DHT22;10974;51.034;3.744;2022-09-25T11:20:23;20.00;1.00
21625;DHT22;10974;51.034;3.744;2022-09-25T11:23:28;18.80;99.90
21625;DHT22;10974;51.034;3.744;2022-09-25T11:36:59;19.00;99.90
21625;DHT22;10974;51.034;3.744;2022-09-25T11:43:05;18.10;99.90
21625;DHT22;10974;51.034;3.744;2022-09-25T11:45:38;18.30;1.00
21625;DHT22;10974;51.034;3.744;2022-09-25T11:48:18;18.80;99.90
21625;DHT22;10974;51.034;3.744;2022-09-25T12:01:45;21.00;99.90
21625;DHT22;10974;51.034;3.744;2022-09-25T12:04:36;20.40;1.00
21625;DHT22;10974;51.034;3.744;2022-09-25T12:07:33;19.70;99.90
21625;DHT22;10974;51.034;3.744;2022-09-25T12:15:37;18.30;1.00
21625;DHT22;10974;51.034;3.744;2022-09-25T12:31:47;17.30;99.90
21625;DHT22;10974;51.034;3.744;2022-09-25T12:39:59;18.40;99.90
21625;DHT22;10974;51.034;3.744;2022-09-25T12:43:11;18.20;1.00
21625;DHT22;10974;51.034;3.744;2022-09-25T12:46:22;18.60;99.90
21625;DHT22;10974;51.034;3.744;2022-09-25T12:49:03;20.00;1.00
21625;DHT22;10974;51.034;3.744;2022-09-25T12:51:40;19.80;1.00
21625;DHT22;10974;51.034;3.744;2022-09-25T12:57:02;18.70;1.00
21625;DHT22;10974;51.034;3.744;2022-09-25T12:59:36;19.60;99.90
21625;DHT22;10974;51.034;3.744;2022-09-25T13:05:16;20.20;99.90
21625;DHT22;10974;51.034;3.744;2022-09-25T13:10:51;20.60;1.00
21625;DHT22;10974;51.034;3.744;2022-09-25T13:13:20;20.70;85.40
21625;DHT22;10974;51.034;3.744;2022-09-25T13:15:52;20.70;1.00
21625;DHT22;10974;51.034;3.744;2022-09-25T13:18:22;21.00;42.50
21625;DHT22;10974;51.034;3.744;2022-09-25T13:20:55;21.10;1.00
21625;DHT22;10974;51.034;3.744;2022-09-25T13:23:35;21.30;99.90
21625;DHT22;10974;51.034;3.744;2022-09-25T13:26:12;20.40;1.00
21625;DHT22;10974;51.034;3.744;2022-09-25T13:28:46;20.00;99.90
21625;DHT22;10974;51.034;3.744;2022-09-25T13:31:30;19.40;1.00
21625;DHT22;10974;51.034;3.744;2022-09-25T13:36:30;18.70;1.00
21625;DHT22;10974;51.034;3.744;2022-09-25T13:39:00;18.40;99.90
21625;DHT22;10974;51.034;3.744;2022-09-25T14:02:53;17.30;1.00
21625;DHT22;10974;51.034;3.744;2022-09-25T14:05:27;17.20;1.00
21625;DHT22;10974;51.034;3.744;2022-09-25T14:08:14;17.20;99.90
21625;DHT22;10974;51.034;3.744;2022-09-25T14:10:48;17.10;1.00
21625;DHT22;10974;51.034;3.744;2022-09-25T14:13:16;17.00;1.00
21625;DHT22;10974;51.034;3.744;2022-09-25T14:15:43;16.90;99.90
21625;DHT22;10974;51.034;3.744;2022-09-25T14:18:26;17.00;99.90
21625;DHT22;10974;51.034;3.744;2022-09-25T14:20:58;16.90;99.90
21625;DHT22;10974;51.034;3.744;2022-09-25T14:23:29;16.80;1.00
21625;DHT22;10974;51.034;3.744;2022-09-25T14:26:02;16.90;1.00
21625;DHT22;10974;51.034;3.744;2022-09-25T14:28:53;16.90;25.90
21625;DHT22;10974;51.034;3.744;2022-09-25T14:34:27;17.00;99.90
21625;DHT22;10974;51.034;3.744;2022-09-25T14:47:22;16.80;99.90
21625;DHT22;10974;51.034;3.744;2022-09-25T14:49:52;17.00;99.90
21625;DHT22;10974;51.034;3.744;2022-09-25T14:52:22;17.10;1.00
21625;DHT22;10974;51.034;3.744;2022-09-25T14:54:51;17.30;99.90
21625;DHT22;10974;51.034;3.744;2022-09-25T14:57:23;17.00;99.90
21625;DHT22;10974;51.034;3.744;2022-09-25T14:59:53;17.00;1.00
21625;DHT22;10974;51.034;3.744;2022-09-25T15:02:38;16.80;99.90
21625;DHT22;10974;51.034;3.744;2022-09-25T15:05:28;16.80;99.90
21625;DHT22;10974;51.034;3.744;2022-09-25T15:07:55;16.90;99.90
21625;DHT22;10974;51.034;3.744;2022-09-25T15:10:33;17.00;1.00
21625;DHT22;10974;51.034;3.744;2022-09-25T15:13:18;16.80;1.00
21625;DHT22;10974;51.034;3.744;2022-09-25T15:15:47;16.70;99.90
21625;DHT22;10974;51.034;3.744;2022-09-25T15:18:35;16.60;1.00
21625;DHT22;10974;51.034;3.744;2022-09-25T15:21:03;16.60;1.00
21625;DHT22;10974;51.034;3.744;2022-09-25T15:23:32;16.70;99.90
21625;DHT22;10974;51.034;3.744;2022-09-25T15:25:59;16.70;1.00
21625;DHT22;10974;51.034;3.744;2022-09-25T15:28:26;16.70;1.00
21625;DHT22;10974;51.034;3.744;2022-09-25T15:30:57;16.80;1.00
21625;DHT22;10974;51.034;3.744;2022-09-25T15:47:53;16.80;99.90
21625;DHT22;10974;51.034;3.744;2022-09-25T15:50:23;16.60;99.90
21625;DHT22;10974;51.034;3.744;2022-09-25T15:52:51;16.50;99.90
21625;DHT22;10974;51.034;3.744;2022-09-25T15:55:19;16.40;99.90
21625;DHT22;10974;51.034;3.744;2022-09-25T15:57:46;16.30;1.00
21625;DHT22;10974;51.034;3.744;2022-09-25T16:00:22;16.60;99.90
21625;DHT22;10974;51.034;3.744;2022-09-25T16:03:16;17.50;1.00
21625;DHT22;10974;51.034;3.744;2022-09-25T16:06:02;18.30;1.00
21625;DHT22;10974;51.034;3.744;2022-09-25T16:08:33;18.80;1.00
21625;DHT22;10974;51.034;3.744;2022-09-25T16:11:23;19.20;99.90
21625;DHT22;10974;51.034;3.744;2022-09-25T16:13:52;19.40;97.70
21625;DHT22;10974;51.034;3.744;2022-09-25T16:16:28;19.60;1.00
21625;DHT22;10974;51.034;3.744;2022-09-25T16:19:36;19.80;99.90
21625;DHT22;10974;51.034;3.744;2022-09-25T16:22:18;19.90;99.90
21625;DHT22;10974;51.034;3.744;2022-09-25T16:24:49;20.00;1.00
21625;DHT22;10974;51.034;3.744;2022-09-25T16:27:30;20.00;99.90
21625;DHT22;10974;51.034;3.744;2022-09-25T16:29:57;20.10;1.00
21625;DHT22;10974;51.034;3.744;2022-09-25T16:32:23;20.20;1.00
21625;DHT22;10974;51.034;3.744;2022-09-25T16:35:00;20.20;1.00
21625;DHT22;10974;51.034;3.744;2022-09-25T16:37:30;20.30;58.20
21625;DHT22;10974;51.034;3.744;2022-09-25T16:40:15;20.30;99.90
21625;DHT22;10974;51.034;3.744;2022-09-25T16:42:43;20.30;99.90
21625;DHT22;10974;51.034;3.744;2022-09-25T16:45:26;20.30;99.90
21625;DHT22;10974;51.034;3.744;2022-09-25T16:47:55;20.30;15.20
21625;DHT22;10974;51.034;3.744;2022-09-25T16:50:25;20.40;99.90
21625;DHT22;10974;51.034;3.744;2022-09-25T16:52:51;20.30;1.00
21625;DHT22;10974;51.034;3.744;2022-09-25T16:55:23;20.30;99.90
21625;DHT22;10974;51.034;3.744;2022-09-25T16:57:50;20.40;1.00
21625;DHT22;10974;51.034;3.744;2022-09-25T17:00:26;20.50;99.90
21625;DHT22;10974;51.034;3.744;2022-09-25T17:02:53;20.40;99.90
21625;DHT22;10974;51.034;3.744;2022-09-25T17:05:24;20.30;1.00
21625;DHT22;10974;51.034;3.744;2022-09-25T17:07:53;20.30;99.90
21625;DHT22;10974;51.034;3.744;2022-09-25T17:10:22;20.40;1.00
21625;DHT22;10974;51.034;3.744;2022-09-25T17:12:50;20.40;1.00
21625;DHT22;10974;51.034;3.744;2022-09-25T17:15:22;20.30;99.90
21625;DHT22;10974;51.034;3.744;2022-09-25T17:17:52;20.30;1.00
21625;DHT22;10974;51.034;3.744;2022-09-25T17:20:21;20.40;99.90
21625;DHT22;10974;51.034;3.744;2022-09-25T17:22:48;20.30;1.00
21625;DHT22;10974;51.034;3.744;2022-09-25T17:28:04;20.40;1.00
21625;DHT22;10974;51.034;3.744;2022-09-25T17:30:30;20.40;99.90
21625;DHT22;10974;51.034;3.744;2022-09-25T17:32:56;20.30;1.00
21625;DHT22;10974;51.034;3.744;2022-09-25T17:35:32;20.30;1.00
21625;DHT22;10974;51.034;3.744;2022-09-25T17:37:59;20.40;1.00
21625;DHT22;10974;51.034;3.744;2022-09-25T17:40:27;20.30;1.00
21625;DHT22;10974;51.034;3.744;2022-09-25T17:42:54;20.30;1.00
21625;DHT22;10974;51.034;3.744;2022-09-25T17:48:07;20.30;1.00
21625;DHT22;10974;51.034;3.744;2022-09-25T17:50:33;20.40;99.90
21625;DHT22;10974;51.034;3.744;2022-09-25T17:53:01;20.20;99.90
21625;DHT22;10974;51.034;3.744;2022-09-25T17:55:28;20.30;1.00
21625;DHT22;10974;51.034;3.744;2022-09-25T17:57:54;20.30;1.00
21625;DHT22;10974;51.034;3.744;2022-09-25T18:00:19;20.40;1.00
21625;DHT22;10974;51.034;3.744;2022-09-25T18:02:45;20.50;99.90
21625;DHT22;10974;51.034;3.744;2022-09-25T18:05:16;20.50;17.60
21625;DHT22;10974;51.034;3.744;2022-09-25T18:07:42;20.50;99.90
21625;DHT22;10974;51.034;3.744;2022-09-25T18:10:08;20.50;1.00
21625;DHT22;10974;51.034;3.744;2022-09-25T18:12:34;20.50;1.00
21625;DHT22;10974;51.034;3.744;2022-09-25T18:15:00;20.50;1.00
21625;DHT22;10974;51.034;3.744;2022-09-25T18:17:26;20.50;1.00
21625;DHT22;10974;51.034;3.744;2022-09-25T18:19:52;20.50;99.90
21625;DHT22;10974;51.034;3.744;2022-09-25T18:22:36;20.50;99.90
21625;DHT22;10974;51.034;3.744;2022-09-25T18:25:03;20.40;1.00
21625;DHT22;10974;51.034;3.744;2022-09-25T18:27:32;20.30;99.90
21625;DHT22;10974;51.034;3.744;2022-09-25T18:29:58;20.00;1.00
21625;DHT22;10974;51.034;3.744;2022-09-25T18:32:23;20.00;99.90
21625;DHT22;10974;51.034;3.744;2022-09-25T18:34:50;20.10;1.00
21625;DHT22;10974;51.034;3.744;2022-09-25T18:37:16;20.30;99.90
21625;DHT22;10974;51.034;3.744;2022-09-25T18:39:41;20.20;99.90